Time;durP1;ratioP1;P1;durP2;ratioP2;P2;SDS_P1;SDS_P2;PMS_P1;PMS_P2;Temp;Humidity;BMP_temperature;BMP_pressure;BME280_temperature;BME280_humidity;BME280_pressure;Samples;Min_cycle;Max_cycle;Signal;HPM_P1;HPM_P2
2022/09/26 00:01:51;;;;;;;6.60;5.17;;;;;;;;;;5114496;28;20237;-76
2022/09/26 00:04:21;;;;;;;7.30;4.83;;;;;;;;;;5120614;27;20637;-76
2022/09/26 00:06:53;;;;;;;5.97;5.20;;;;;;;;;;5114277;27;20201;-77
2022/09/26 00:09:22;;;;;;;5.53;4.43;;;;;;;;;;5115853;27;20277;-76
2022/09/26 00:11:52;;;;;;;6.47;5.27;;;;;;;;;;5135019;27;20283;-76
2022/09/26 00:14:21;;;;;;;10.37;5.07;;;;;;;;;;5113248;28;20256;-76
2022/09/26 00:16:50;;;;;;;5.67;4.33;;;;;;;;;;5125845;27;20627;-76
2022/09/26 00:19:19;;;;;;;4.70;4.20;;;;;;;;;;5133276;27;20236;-75
2022/09/26 00:21:47;;;;;;;6.83;4.50;;;;;;;;;;5113860;28;20239;-75
2022/09/26 00:24:17;;;;;;;5.57;3.87;;;;;;;;;;5113401;28;20232;-76
2022/09/26 00:26:45;;;;;;;6.87;4.10;;;;;;;;;;5122534;27;20283;-75
2022/09/26 00:29:14;;;;;;;4.97;3.70;;;;;;;;;;5113709;28;20236;-76
2022/09/26 00:31:44;;;;;;;4.47;3.83;;;;;;;;;;5115226;28;20266;-78
2022/09/26 00:34:13;;;;;;;5.10;3.93;;;;;;;;;;5114765;28;20229;-76
2022/09/26 00:36:41;;;;;;;7.20;3.83;;;;;;;;;;5114942;28;20231;-78
2022/09/26 00:39:11;;;;;;;6.27;3.73;;;;;;;;;;5114608;28;20292;-78
2022/09/26 00:41:41;;;;;;;4.97;3.70;;;;;;;;;;5114947;28;20216;-78
2022/09/26 00:44:28;;;;;;;4.77;3.50;;;;;;;;;;5114591;28;20652;-78
2022/09/26 00:46:56;;;;;;;4.70;3.67;;;;;;;;;;5115216;28;20261;-78
2022/09/26 00:49:26;;;;;;;4.67;3.30;;;;;;;;;;5114542;28;20326;-77
2022/09/26 00:51:57;;;;;;;6.70;3.87;;;;;;;;;;5114931;28;20189;-78
2022/09/26 00:54:26;;;;;;;5.33;3.70;;;;;;;;;;5114672;28;20677;-78
2022/09/26 00:56:58;;;;;;;7.43;4.13;;;;;;;;;;5115068;28;20722;-78
2022/09/26 00:59:30;;;;;;;7.10;3.80;;;;;;;;;;5119061;27;20306;-78
2022/09/26 01:01:59;;;;;;;4.93;3.80;;;;;;;;;;5114897;28;20236;-77
2022/09/26 01:04:30;;;;;;;7.53;3.70;;;;;;;;;;5128583;27;20231;-77
2022/09/26 01:07:00;;;;;;;5.23;3.77;;;;;;;;;;5114480;28;20244;-78
2022/09/26 01:09:29;;;;;;;6.53;3.97;;;;;;;;;;5114586;28;20244;-78
2022/09/26 01:12:00;;;;;;;6.70;3.90;;;;;;;;;;5117212;28;20216;-78
2022/09/26 01:14:29;;;;;;;5.17;3.60;;;;;;;;;;5116735;27;20242;-76
2022/09/26 01:16:57;;;;;;;4.53;3.77;;;;;;;;;;5119994;28;20299;-78
2022/09/26 01:19:29;;;;;;;5.20;3.90;;;;;;;;;;5135359;27;20206;-78
2022/09/26 01:22:24;;;;;;;5.83;3.70;;;;;;;;;;5114507;28;20185;-78
2022/09/26 01:25:00;;;;;;;5.80;3.53;;;;;;;;;;5078628;28;20223;-77
2022/09/26 01:27:37;;;;;;;5.10;3.90;;;;;;;;;;5117747;27;20597;-77
2022/09/26 01:30:12;;;;;;;3.80;3.50;;;;;;;;;;5121177;28;20269;-77
2022/09/26 01:32:51;;;;;;;6.97;3.77;;;;;;;;;;5131841;28;20262;-78
2022/09/26 01:35:28;;;;;;;4.57;3.40;;;;;;;;;;5124106;27;20696;-77
2022/09/26 01:38:02;;;;;;;5.73;3.50;;;;;;;;;;5118711;28;20302;-78
2022/09/26 01:40:32;;;;;;;3.43;3.10;;;;;;;;;;5128716;27;20199;-77
2022/09/26 01:43:06;;;;;;;4.73;3.23;;;;;;;;;;5123701;27;20274;-77
2022/09/26 01:45:41;;;;;;;5.57;2.90;;;;;;;;;;5114078;28;20296;-77
2022/09/26 01:48:17;;;;;;;4.50;3.30;;;;;;;;;;5128634;28;20254;-78
2022/09/26 01:50:49;;;;;;;5.17;3.50;;;;;;;;;;5128001;28;20201;-77
2022/09/26 01:53:20;;;;;;;5.23;3.30;;;;;;;;;;5114463;28;20254;-78
2022/09/26 01:55:50;;;;;;;6.80;3.33;;;;;;;;;;5119894;28;20240;-78
2022/09/26 01:58:20;;;;;;;6.13;3.50;;;;;;;;;;5124941;27;20247;-78
2022/09/26 02:00:50;;;;;;;4.33;3.30;;;;;;;;;;5118428;28;20209;-78
2022/09/26 02:03:22;;;;;;;5.20;3.50;;;;;;;;;;5118512;28;20632;-78
2022/09/26 02:05:52;;;;;;;4.13;3.60;;;;;;;;;;5126621;27;20180;-78
2022/09/26 02:08:23;;;;;;;6.17;3.40;;;;;;;;;;5139111;27;20181;-78
2022/09/26 02:10:53;;;;;;;5.77;3.53;;;;;;;;;;5126288;27;20221;-77
2022/09/26 02:13:24;;;;;;;4.73;3.93;;;;;;;;;;5134124;27;20664;-77
2022/09/26 02:15:56;;;;;;;7.10;3.67;;;;;;;;;;5126896;27;20670;-77
2022/09/26 02:18:29;;;;;;;7.47;3.97;;;;;;;;;;5117666;28;20232;-76
2022/09/26 02:21:01;;;;;;;4.43;3.30;;;;;;;;;;5118862;27;20296;-78
2022/09/26 02:23:30;;;;;;;7.13;3.60;;;;;;;;;;5135371;27;20221;-77
2022/09/26 02:25:58;;;;;;;5.00;3.50;;;;;;;;;;5138476;27;20204;-78
2022/09/26 02:28:27;;;;;;;5.33;3.63;;;;;;;;;;5138445;27;20204;-77
2022/09/26 02:30:59;;;;;;;7.43;3.60;;;;;;;;;;5137928;27;20247;-78
2022/09/26 02:33:28;;;;;;;5.20;3.50;;;;;;;;;;5137674;27;20597;-78
2022/09/26 02:35:57;;;;;;;6.93;3.60;;;;;;;;;;5138174;27;20255;-78
2022/09/26 02:38:27;;;;;;;7.93;3.40;;;;;;;;;;5138333;27;20196;-78
2022/09/26 02:40:58;;;;;;;5.40;3.60;;;;;;;;;;5121304;27;20225;-78
2022/09/26 02:43:39;;;;;;;5.00;3.83;;;;;;;;;;5127492;27;20593;-78
2022/09/26 02:46:18;;;;;;;5.33;3.73;;;;;;;;;;5137658;27;20236;-77
2022/09/26 02:48:54;;;;;;;5.67;3.60;;;;;;;;;;5136889;27;20254;-76
2022/09/26 02:51:31;;;;;;;3.87;3.20;;;;;;;;;;5117396;28;20614;-77
2022/09/26 02:54:09;;;;;;;4.20;3.77;;;;;;;;;;5117010;28;20303;-77
2022/09/26 02:56:44;;;;;;;5.33;4.13;;;;;;;;;;5116211;28;20292;-78
2022/09/26 02:59:20;;;;;;;5.20;3.97;;;;;;;;;;5117245;28;20238;-77
2022/09/26 03:01:53;;;;;;;5.80;4.20;;;;;;;;;;5116611;28;20210;-78
2022/09/26 03:04:25;;;;;;;6.43;3.97;;;;;;;;;;5116765;27;20246;-77
2022/09/26 03:06:55;;;;;;;6.67;4.30;;;;;;;;;;5116976;28;20568;-77
2022/09/26 03:09:25;;;;;;;7.17;4.17;;;;;;;;;;5116945;28;20253;-77
2022/09/26 03:11:54;;;;;;;8.73;4.53;;;;;;;;;;5121102;27;20241;-77
2022/09/26 03:14:22;;;;;;;6.00;4.50;;;;;;;;;;5133727;27;20225;-77
2022/09/26 03:16:53;;;;;;;5.70;4.73;;;;;;;;;;5130330;27;20228;-77
2022/09/26 03:19:25;;;;;;;7.93;4.70;;;;;;;;;;5136957;27;20189;-78
2022/09/26 03:21:54;;;;;;;7.57;5.17;;;;;;;;;;5136668;27;20220;-77
2022/09/26 03:24:24;;;;;;;6.30;5.10;;;;;;;;;;5137372;27;20664;-78
2022/09/26 03:26:53;;;;;;;7.43;5.47;;;;;;;;;;5136929;27;20287;-78
2022/09/26 03:29:22;;;;;;;8.27;5.47;;;;;;;;;;5134504;27;20702;-77
2022/09/26 03:31:52;;;;;;;8.17;5.70;;;;;;;;;;5121739;27;20580;-78
2022/09/26 03:34:21;;;;;;;8.37;6.07;;;;;;;;;;5116612;28;20197;-78
2022/09/26 03:36:49;;;;;;;7.97;6.13;;;;;;;;;;5115428;28;20264;-78
2022/09/26 03:39:18;;;;;;;7.97;6.10;;;;;;;;;;5120207;27;20220;-77
2022/09/26 03:41:46;;;;;;;7.50;6.67;;;;;;;;;;5119011;27;20221;-77
2022/09/26 03:44:16;;;;;;;7.40;6.40;;;;;;;;;;5136270;27;20224;-78
2022/09/26 03:46:45;;;;;;;7.87;6.63;;;;;;;;;;5132073;27;20197;-78
2022/09/26 03:49:19;;;;;;;8.43;6.27;;;;;;;;;;5136013;27;20657;-77
2022/09/26 03:51:47;;;;;;;7.53;6.80;;;;;;;;;;5136053;27;20565;-77
2022/09/26 03:54:16;;;;;;;9.73;6.80;;;;;;;;;;5135868;27;20262;-77
2022/09/26 03:56:44;;;;;;;9.17;6.90;;;;;;;;;;5131883;27;20308;-77
2022/09/26 03:59:13;;;;;;;11.73;7.57;;;;;;;;;;5131684;27;20668;-77
2022/09/26 04:01:42;;;;;;;8.30;6.60;;;;;;;;;;5120745;27;20201;-77
2022/09/26 04:04:10;;;;;;;7.87;6.63;;;;;;;;;;5115702;28;20678;-77
2022/09/26 04:06:40;;;;;;;8.53;7.37;;;;;;;;;;5115173;28;20292;-77
2022/09/26 04:09:10;;;;;;;9.67;7.07;;;;;;;;;;5115728;27;20300;-77
2022/09/26 04:11:44;;;;;;;11.13;7.40;;;;;;;;;;5115687;28;20196;-77
2022/09/26 04:14:13;;;;;;;8.73;7.50;;;;;;;;;;5115101;27;20304;-77
2022/09/26 04:16:41;;;;;;;10.90;8.40;;;;;;;;;;5114513;28;20252;-76
2022/09/26 04:19:10;;;;;;;8.03;7.23;;;;;;;;;;5115831;28;20284;-78
2022/09/26 04:21:41;;;;;;;9.00;7.77;;;;;;;;;;5115272;28;20243;-78
2022/09/26 04:24:13;;;;;;;10.43;7.80;;;;;;;;;;5114669;28;20224;-78
2022/09/26 04:26:42;;;;;;;11.20;8.37;;;;;;;;;;5115200;28;20552;-77
2022/09/26 04:29:14;;;;;;;12.17;8.33;;;;;;;;;;5135008;27;20284;-77
2022/09/26 04:31:42;;;;;;;9.93;8.03;;;;;;;;;;5133576;27;20198;-77
2022/09/26 04:34:11;;;;;;;9.40;8.17;;;;;;;;;;5124719;27;20220;-77
2022/09/26 04:36:42;;;;;;;10.23;7.27;;;;;;;;;;5122979;27;20304;-77
2022/09/26 04:39:11;;;;;;;8.70;7.00;;;;;;;;;;5114720;28;20621;-77
2022/09/26 04:41:40;;;;;;;9.60;6.93;;;;;;;;;;5130774;27;20204;-77
2022/09/26 04:44:08;;;;;;;9.20;6.33;;;;;;;;;;5121415;27;20640;-77
2022/09/26 04:46:36;;;;;;;8.50;6.70;;;;;;;;;;5115426;27;20785;-77
2022/09/26 04:49:05;;;;;;;9.10;6.50;;;;;;;;;;5135638;27;20703;-77
2022/09/26 04:51:34;;;;;;;6.83;6.23;;;;;;;;;;5135831;27;20196;-77
2022/09/26 04:54:04;;;;;;;8.47;6.60;;;;;;;;;;5123404;27;20217;-77
2022/09/26 04:56:33;;;;;;;8.00;6.30;;;;;;;;;;5115203;28;20752;-77
2022/09/26 04:59:01;;;;;;;8.00;6.20;;;;;;;;;;5115008;28;20674;-77
2022/09/26 05:01:29;;;;;;;6.00;5.43;;;;;;;;;;5133677;27;20231;-76
2022/09/26 05:03:58;;;;;;;6.37;5.53;;;;;;;;;;5126963;27;20272;-77
2022/09/26 05:06:26;;;;;;;8.80;6.10;;;;;;;;;;5114818;28;20296;-78
2022/09/26 05:08:55;;;;;;;6.83;6.00;;;;;;;;;;5114226;28;20201;-77
2022/09/26 05:11:25;;;;;;;7.73;5.83;;;;;;;;;;5124318;28;20228;-77
2022/09/26 05:13:53;;;;;;;9.33;6.60;;;;;;;;;;5135311;28;20272;-77
2022/09/26 05:16:22;;;;;;;9.47;6.47;;;;;;;;;;5134659;28;20236;-77
2022/09/26 05:18:51;;;;;;;7.63;6.80;;;;;;;;;;5135411;27;20552;-77
2022/09/26 05:21:20;;;;;;;10.93;6.77;;;;;;;;;;5135267;27;20239;-77
2022/09/26 05:26:39;;;;;;;9.33;7.07;;;;;;;;;;5114327;28;20687;-76
2022/09/26 05:29:08;;;;;;;8.93;7.17;;;;;;;;;;5114581;28;20560;-77
2022/09/26 05:31:38;;;;;;;8.63;6.77;;;;;;;;;;5114256;28;20193;-77
2022/09/26 05:34:07;;;;;;;8.03;6.97;;;;;;;;;;5114280;28;20289;-78
2022/09/26 05:36:35;;;;;;;8.53;6.63;;;;;;;;;;5117527;28;20623;-77
2022/09/26 05:39:04;;;;;;;8.27;6.87;;;;;;;;;;5118493;28;20231;-77
2022/09/26 05:41:32;;;;;;;8.40;6.50;;;;;;;;;;5118721;28;20198;-77
2022/09/26 05:44:02;;;;;;;10.73;6.50;;;;;;;;;;5117841;28;20331;-77
2022/09/26 05:46:33;;;;;;;8.13;6.20;;;;;;;;;;5118181;28;20243;-77
2022/09/26 05:49:01;;;;;;;8.63;6.33;;;;;;;;;;5118489;28;20211;-77
2022/09/26 05:51:30;;;;;;;8.50;6.93;;;;;;;;;;5117763;28;20299;-76
2022/09/26 05:53:58;;;;;;;9.73;6.60;;;;;;;;;;5118096;28;20312;-78
2022/09/26 05:56:26;;;;;;;9.00;6.83;;;;;;;;;;5118212;28;20247;-77
2022/09/26 05:58:55;;;;;;;7.60;6.60;;;;;;;;;;5117834;28;20639;-77
2022/09/26 06:01:24;;;;;;;7.67;6.47;;;;;;;;;;5118430;28;20288;-78
2022/09/26 06:03:53;;;;;;;10.30;6.77;;;;;;;;;;5117947;28;20221;-77
2022/09/26 06:06:21;;;;;;;8.93;6.90;;;;;;;;;;5117923;28;20300;-78
2022/09/26 06:08:50;;;;;;;8.57;6.40;;;;;;;;;;5117945;28;20227;-78
2022/09/26 06:11:23;;;;;;;10.47;6.03;;;;;;;;;;5117442;28;20240;-78
2022/09/26 06:13:52;;;;;;;8.97;6.00;;;;;;;;;;5117565;28;20221;-78
2022/09/26 06:16:21;;;;;;;7.83;5.67;;;;;;;;;;5117834;28;20288;-78
2022/09/26 06:18:54;;;;;;;11.27;6.40;;;;;;;;;;5117538;27;20266;-77
2022/09/26 06:21:23;;;;;;;9.13;5.83;;;;;;;;;;5122802;27;20185;-77
2022/09/26 06:23:51;;;;;;;9.37;6.20;;;;;;;;;;5117065;28;20307;-77
2022/09/26 06:26:21;;;;;;;7.77;5.63;;;;;;;;;;5117371;28;20258;-77
2022/09/26 06:28:49;;;;;;;7.23;5.93;;;;;;;;;;5117511;28;20201;-77
2022/09/26 06:31:20;;;;;;;8.07;5.80;;;;;;;;;;5117021;28;20247;-77
2022/09/26 06:33:52;;;;;;;6.47;5.67;;;;;;;;;;5117022;28;20258;-77
2022/09/26 06:36:22;;;;;;;7.73;5.40;;;;;;;;;;5117331;27;20193;-77
2022/09/26 06:38:51;;;;;;;7.63;6.00;;;;;;;;;;5116983;27;20242;-77
2022/09/26 06:41:19;;;;;;;8.07;5.77;;;;;;;;;;5116979;28;20248;-77
2022/09/26 06:43:48;;;;;;;7.10;5.90;;;;;;;;;;5117025;27;20225;-77
2022/09/26 06:46:17;;;;;;;9.13;5.83;;;;;;;;;;5116339;28;20202;-77
2022/09/26 06:48:45;;;;;;;9.43;6.27;;;;;;;;;;5116119;28;20212;-77
2022/09/26 06:51:14;;;;;;;11.03;6.43;;;;;;;;;;5116773;28;20666;-77
2022/09/26 06:53:44;;;;;;;7.47;6.27;;;;;;;;;;5116911;28;20758;-77
2022/09/26 06:56:13;;;;;;;7.77;5.90;;;;;;;;;;5116441;28;20556;-77
2022/09/26 06:58:42;;;;;;;9.20;6.53;;;;;;;;;;5127806;27;20285;-77
2022/09/26 07:01:11;;;;;;;9.40;6.40;;;;;;;;;;5137320;27;20251;-77
2022/09/26 07:03:39;;;;;;;10.80;6.37;;;;;;;;;;5137033;27;20772;-77
2022/09/26 07:06:13;;;;;;;9.07;6.63;;;;;;;;;;5137559;27;20619;-77
2022/09/26 07:08:41;;;;;;;8.30;6.13;;;;;;;;;;5137373;27;20204;-78
2022/09/26 07:11:31;;;;;;;8.03;6.93;;;;;;;;;;5126139;27;20201;-77
2022/09/26 07:14:20;;;;;;;7.57;5.87;;;;;;;;;;5116192;28;20201;-77
2022/09/26 07:16:49;;;;;;;9.10;6.03;;;;;;;;;;5115839;28;20258;-77
2022/09/26 07:19:17;;;;;;;6.47;5.40;;;;;;;;;;5116204;28;20635;-77
2022/09/26 07:21:46;;;;;;;9.33;6.60;;;;;;;;;;5116820;27;20240;-77
2022/09/26 07:24:14;;;;;;;9.17;6.70;;;;;;;;;;5136766;27;20310;-77
2022/09/26 07:26:44;;;;;;;9.10;6.43;;;;;;;;;;5136229;27;20250;-77
2022/09/26 07:29:13;;;;;;;7.40;6.03;;;;;;;;;;5136489;27;20240;-77
2022/09/26 07:31:41;;;;;;;6.70;6.00;;;;;;;;;;5125260;27;20193;-77
2022/09/26 07:34:10;;;;;;;8.60;6.17;;;;;;;;;;5115673;28;20251;-76
2022/09/26 07:36:46;;;;;;;7.67;6.10;;;;;;;;;;5115522;28;20181;-77
2022/09/26 07:39:15;;;;;;;8.23;6.10;;;;;;;;;;5115595;28;20308;-77
2022/09/26 07:41:45;;;;;;;9.07;6.70;;;;;;;;;;5115698;28;20240;-76
2022/09/26 07:44:14;;;;;;;7.70;6.10;;;;;;;;;;5115541;28;20239;-77
2022/09/26 07:50:13;;;;;;;8.80;6.30;;;;;;;;;;5078098;27;20687;-77
2022/09/26 07:52:43;;;;;;;11.27;6.17;;;;;;;;;;5136034;27;20693;-77
2022/09/26 07:55:12;;;;;;;8.27;6.80;;;;;;;;;;5135979;27;20200;-77
2022/09/26 07:57:42;;;;;;;10.43;6.60;;;;;;;;;;5135506;27;20247;-77
2022/09/26 08:00:12;;;;;;;8.07;6.00;;;;;;;;;;5134325;27;20653;-77
2022/09/26 08:02:41;;;;;;;9.37;6.10;;;;;;;;;;5135639;27;20216;-77
2022/09/26 08:05:10;;;;;;;8.00;6.30;;;;;;;;;;5136011;27;20296;-77
2022/09/26 08:07:39;;;;;;;8.37;6.40;;;;;;;;;;5135910;27;20232;-77
2022/09/26 08:10:12;;;;;;;7.33;6.30;;;;;;;;;;5136026;27;20195;-77
2022/09/26 08:12:42;;;;;;;7.90;5.60;;;;;;;;;;5135861;27;20233;-78
2022/09/26 08:15:11;;;;;;;7.30;5.53;;;;;;;;;;5135649;27;20621;-77
2022/09/26 08:17:39;;;;;;;6.87;6.13;;;;;;;;;;5135598;27;20224;-77
2022/09/26 08:20:08;;;;;;;7.37;5.30;;;;;;;;;;5135737;27;20647;-77
2022/09/26 08:22:37;;;;;;;7.00;5.30;;;;;;;;;;5135348;27;20220;-77
2022/09/26 08:25:06;;;;;;;6.63;5.40;;;;;;;;;;5135210;27;20200;-77
2022/09/26 08:27:35;;;;;;;8.90;5.53;;;;;;;;;;5135426;27;20228;-77
2022/09/26 08:30:06;;;;;;;8.53;5.30;;;;;;;;;;5135232;27;20713;-77
2022/09/26 08:32:36;;;;;;;7.40;5.20;;;;;;;;;;5119393;27;20225;-77
2022/09/26 08:35:04;;;;;;;6.43;5.10;;;;;;;;;;5114918;28;20200;-77
2022/09/26 08:37:33;;;;;;;7.40;5.20;;;;;;;;;;5115077;28;20201;-77
2022/09/26 08:40:02;;;;;;;6.07;4.73;;;;;;;;;;5114193;28;20278;-77
2022/09/26 08:42:34;;;;;;;6.17;5.00;;;;;;;;;;5114510;28;20312;-77
2022/09/26 08:48:04;;;;;;;5.27;4.63;;;;;;;;;;5114786;28;20197;-77
2022/09/26 08:50:38;;;;;;;7.07;4.80;;;;;;;;;;5114492;28;20567;-77
2022/09/26 08:53:10;;;;;;;5.87;4.37;;;;;;;;;;5114234;28;20221;-77
2022/09/26 08:55:41;;;;;;;6.53;4.27;;;;;;;;;;5114158;28;20224;-77
2022/09/26 08:58:14;;;;;;;7.70;4.40;;;;;;;;;;5114107;28;20186;-77
2022/09/26 09:00:44;;;;;;;5.97;3.90;;;;;;;;;;5131803;27;20589;-76
2022/09/26 09:03:19;;;;;;;5.63;3.97;;;;;;;;;;5135039;27;20220;-77
2022/09/26 09:05:50;;;;;;;6.20;4.33;;;;;;;;;;5135135;27;20227;-77
2022/09/26 09:08:21;;;;;;;6.23;4.20;;;;;;;;;;5135078;27;20192;-76
2022/09/26 09:10:53;;;;;;;4.93;4.17;;;;;;;;;;5116895;27;20617;-77
2022/09/26 09:13:26;;;;;;;7.30;4.50;;;;;;;;;;5114149;28;20580;-77
2022/09/26 09:16:03;;;;;;;4.33;3.90;;;;;;;;;;5114820;28;20232;-77
2022/09/26 09:18:36;;;;;;;8.20;4.13;;;;;;;;;;5114080;28;20200;-76
2022/09/26 09:21:11;;;;;;;6.37;3.80;;;;;;;;;;5113753;28;20221;-77
2022/09/26 09:23:50;;;;;;;5.77;3.87;;;;;;;;;;5113863;28;20322;-77
2022/09/26 09:26:23;;;;;;;5.40;4.20;;;;;;;;;;5114168;28;20228;-77
2022/09/26 09:29:19;;;;;;;5.43;3.63;;;;;;;;;;5114067;28;20220;-77
2022/09/26 09:31:49;;;;;;;4.33;3.60;;;;;;;;;;5114049;28;20288;-77
2022/09/26 09:34:21;;;;;;;5.07;3.90;;;;;;;;;;5113718;28;20227;-77
2022/09/26 09:36:51;;;;;;;6.20;3.80;;;;;;;;;;5129604;28;20188;-77
2022/09/26 09:39:23;;;;;;;4.67;3.87;;;;;;;;;;5128196;27;20685;-77
2022/09/26 09:41:55;;;;;;;4.17;3.40;;;;;;;;;;5114316;28;20581;-77
2022/09/26 09:44:30;;;;;;;6.57;4.30;;;;;;;;;;5114109;28;20266;-77
2022/09/26 09:47:01;;;;;;;4.30;3.73;;;;;;;;;;5114017;28;20242;-75
2022/09/26 09:49:31;;;;;;;5.60;3.97;;;;;;;;;;5114268;28;20243;-77
2022/09/26 09:52:05;;;;;;;4.40;3.60;;;;;;;;;;5114057;28;20236;-77
2022/09/26 09:54:44;;;;;;;5.67;3.20;;;;;;;;;;5113887;28;20625;-77
2022/09/26 09:57:19;;;;;;;6.83;3.53;;;;;;;;;;5113980;28;20212;-77
2022/09/26 09:59:56;;;;;;;6.57;3.27;;;;;;;;;;5114105;28;20208;-77
2022/09/26 10:02:29;;;;;;;5.37;3.20;;;;;;;;;;5114647;28;20732;-77
2022/09/26 10:05:05;;;;;;;4.37;3.50;;;;;;;;;;5113860;28;20276;-77
2022/09/26 10:07:33;;;;;;;4.37;3.20;;;;;;;;;;5113533;28;20178;-77
2022/09/26 10:10:02;;;;;;;4.10;3.03;;;;;;;;;;5117722;28;20260;-77
2022/09/26 10:12:33;;;;;;;4.17;3.00;;;;;;;;;;5134449;27;20259;-77
2022/09/26 10:15:04;;;;;;;5.07;3.23;;;;;;;;;;5134225;27;20234;-77
2022/09/26 10:17:34;;;;;;;4.33;3.40;;;;;;;;;;5134078;27;20185;-77
2022/09/26 10:20:02;;;;;;;5.20;3.53;;;;;;;;;;5134588;27;20300;-77
2022/09/26 10:22:34;;;;;;;5.43;3.07;;;;;;;;;;5135187;27;20232;-77
2022/09/26 10:25:05;;;;;;;5.40;3.20;;;;;;;;;;5132027;27;20705;-77
2022/09/26 10:27:35;;;;;;;5.30;3.23;;;;;;;;;;5138381;27;20217;-77
2022/09/26 10:30:06;;;;;;;5.60;3.20;;;;;;;;;;5137627;27;20181;-77
2022/09/26 10:32:44;;;;;;;5.60;3.63;;;;;;;;;;5137757;27;20255;-77
2022/09/26 10:35:23;;;;;;;5.17;3.63;;;;;;;;;;5132112;27;20200;-77
2022/09/26 10:37:59;;;;;;;4.97;3.87;;;;;;;;;;5117788;28;20288;-77
2022/09/26 10:40:46;;;;;;;5.00;3.60;;;;;;;;;;5117197;28;20269;-77
2022/09/26 10:43:27;;;;;;;5.30;3.70;;;;;;;;;;5117065;28;20225;-78
2022/09/26 10:45:59;;;;;;;7.50;3.87;;;;;;;;;;5119994;27;20220;-79
2022/09/26 10:48:37;;;;;;;6.20;4.20;;;;;;;;;;5116780;28;20185;-79
2022/09/26 10:51:06;;;;;;;5.13;4.30;;;;;;;;;;5116441;28;20231;-79
2022/09/26 10:53:38;;;;;;;4.83;3.97;;;;;;;;;;5116213;28;20221;-79
2022/09/26 10:56:08;;;;;;;5.17;4.23;;;;;;;;;;5122567;27;20193;-79
2022/09/26 10:58:39;;;;;;;6.23;4.20;;;;;;;;;;5136470;27;20244;-80
2022/09/26 11:01:17;;;;;;;7.77;4.07;;;;;;;;;;5136599;27;20204;-80
2022/09/26 11:03:47;;;;;;;6.13;3.90;;;;;;;;;;5136524;27;20216;-79
2022/09/26 11:06:22;;;;;;;5.03;3.87;;;;;;;;;;5129959;27;20223;-78
2022/09/26 11:08:53;;;;;;;5.23;3.80;;;;;;;;;;5116774;27;20262;-79
2022/09/26 11:11:22;;;;;;;5.07;4.10;;;;;;;;;;5116154;28;20186;-79
2022/09/26 11:14:03;;;;;;;5.63;4.07;;;;;;;;;;5116204;28;20217;-79
2022/09/26 11:16:38;;;;;;;5.87;4.37;;;;;;;;;;5116984;27;20229;-79
2022/09/26 11:19:11;;;;;;;4.90;4.07;;;;;;;;;;5115480;28;20257;-79
2022/09/26 11:21:43;;;;;;;4.83;4.23;;;;;;;;;;5115755;28;20228;-79
2022/09/26 11:24:16;;;;;;;5.87;3.53;;;;;;;;;;5115072;28;20251;-79
2022/09/26 11:26:50;;;;;;;7.13;3.60;;;;;;;;;;5115278;28;20258;-79
2022/09/26 11:29:22;;;;;;;5.63;3.50;;;;;;;;;;5114305;28;20246;-79
2022/09/26 11:31:51;;;;;;;5.93;3.53;;;;;;;;;;5115544;28;20221;-79
2022/09/26 11:34:26;;;;;;;4.43;3.23;;;;;;;;;;5115274;28;20205;-78
2022/09/26 11:37:04;;;;;;;5.20;3.10;;;;;;;;;;5115245;28;20217;-79
2022/09/26 11:39:40;;;;;;;4.37;3.40;;;;;;;;;;5115348;28;20283;-79
2022/09/26 11:42:17;;;;;;;5.17;2.97;;;;;;;;;;5115336;28;20235;-78
2022/09/26 11:44:57;;;;;;;5.60;2.90;;;;;;;;;;4772027;27;9999898;-78
2022/09/26 11:47:37;;;;;;;4.30;3.27;;;;;;;;;;5127052;27;20719;-78
2022/09/26 11:50:22;;;;;;;4.10;2.83;;;;;;;;;;5122009;27;20212;-78
2022/09/26 11:52:57;;;;;;;4.83;2.60;;;;;;;;;;5135880;27;20220;-78
2022/09/26 11:55:29;;;;;;;3.70;2.77;;;;;;;;;;5136102;27;20267;-79
2022/09/26 11:58:01;;;;;;;4.23;2.87;;;;;;;;;;5116086;27;20193;-78
2022/09/26 12:00:38;;;;;;;3.83;2.83;;;;;;;;;;5115309;28;20740;-78
2022/09/26 12:03:25;;;;;;;3.23;2.07;;;;;;;;;;5126233;27;20224;-78
2022/09/26 12:06:00;;;;;;;2.30;2.10;;;;;;;;;;5135797;27;20218;-77
2022/09/26 12:08:39;;;;;;;3.37;2.23;;;;;;;;;;5121394;27;20239;-78
2022/09/26 12:11:15;;;;;;;4.20;2.33;;;;;;;;;;5121845;27;20200;-79
2022/09/26 12:13:51;;;;;;;3.60;2.70;;;;;;;;;;5115115;28;20593;-77
2022/09/26 12:16:22;;;;;;;4.13;2.73;;;;;;;;;;5135028;27;20208;-77
2022/09/26 12:18:55;;;;;;;4.03;2.90;;;;;;;;;;5115542;27;20201;-77
2022/09/26 12:21:31;;;;;;;5.00;2.50;;;;;;;;;;5124968;27;20299;-78
2022/09/26 12:24:04;;;;;;;5.17;2.50;;;;;;;;;;5128086;27;20224;-78
2022/09/26 12:26:38;;;;;;;2.90;2.10;;;;;;;;;;5131353;27;20242;-78
2022/09/26 12:29:18;;;;;;;4.70;2.87;;;;;;;;;;5124116;27;20287;-78
2022/09/26 12:31:52;;;;;;;3.50;2.70;;;;;;;;;;5128396;27;20276;-78
2022/09/26 12:34:31;;;;;;;4.60;2.70;;;;;;;;;;5116028;27;20196;-78
2022/09/26 12:37:08;;;;;;;3.90;2.80;;;;;;;;;;5114663;27;20238;-79
2022/09/26 12:39:46;;;;;;;3.77;2.47;;;;;;;;;;5121271;27;20255;-79
2022/09/26 12:42:25;;;;;;;4.37;2.97;;;;;;;;;;5127367;27;20232;-79
2022/09/26 12:45:11;;;;;;;5.63;2.93;;;;;;;;;;5124271;27;20657;-79
2022/09/26 12:47:55;;;;;;;3.67;2.77;;;;;;;;;;5124763;27;20257;-79
2022/09/26 12:50:29;;;;;;;2.77;2.57;;;;;;;;;;5128272;27;20545;-79
2022/09/26 12:53:12;;;;;;;3.90;2.70;;;;;;;;;;5130593;27;20208;-79
2022/09/26 12:55:44;;;;;;;3.53;2.60;;;;;;;;;;5113783;28;20228;-79
2022/09/26 12:58:20;;;;;;;5.60;2.77;;;;;;;;;;5120113;27;20228;-79
2022/09/26 13:00:55;;;;;;;4.20;2.40;;;;;;;;;;5123603;27;20208;-79
2022/09/26 13:03:34;;;;;;;4.10;2.40;;;;;;;;;;5134358;27;20272;-79
2022/09/26 13:06:26;;;;;;;3.43;2.77;;;;;;;;;;5126562;27;20224;-80
2022/09/26 13:09:02;;;;;;;4.33;2.80;;;;;;;;;;5119272;28;20253;-80
2022/09/26 13:11:34;;;;;;;3.00;2.70;;;;;;;;;;5133026;27;20184;-80
2022/09/26 13:14:25;;;;;;;2.73;2.53;;;;;;;;;;5130119;27;20247;-79
2022/09/26 13:17:04;;;;;;;3.10;2.80;;;;;;;;;;5131216;27;20224;-80
2022/09/26 13:19:36;;;;;;;4.40;2.40;;;;;;;;;;5124179;27;20200;-80
2022/09/26 13:22:06;;;;;;;3.23;2.50;;;;;;;;;;5134195;28;20244;-80
2022/09/26 13:24:41;;;;;;;3.43;2.30;;;;;;;;;;5134475;27;20279;-80
2022/09/26 13:27:12;;;;;;;2.50;2.30;;;;;;;;;;5119791;27;20233;-80
2022/09/26 13:29:43;;;;;;;3.47;2.60;;;;;;;;;;5133062;27;21209;-80
2022/09/26 13:32:16;;;;;;;3.30;2.50;;;;;;;;;;5134756;27;20584;-80
2022/09/26 13:34:49;;;;;;;4.53;2.60;;;;;;;;;;5134313;27;20204;-79
2022/09/26 13:37:27;;;;;;;2.97;2.50;;;;;;;;;;5134894;27;20216;-80
2022/09/26 13:40:01;;;;;;;4.30;2.57;;;;;;;;;;5122757;27;20204;-81
2022/09/26 13:42:35;;;;;;;2.70;2.23;;;;;;;;;;5122739;28;20232;-79
2022/09/26 13:45:08;;;;;;;4.17;2.53;;;;;;;;;;5118778;28;20245;-80
2022/09/26 13:47:41;;;;;;;3.30;2.40;;;;;;;;;;5122855;28;20633;-79
2022/09/26 13:50:17;;;;;;;2.80;2.50;;;;;;;;;;5119593;28;20200;-79
2022/09/26 13:52:51;;;;;;;2.80;2.30;;;;;;;;;;5121879;27;20304;-79
2022/09/26 13:55:22;;;;;;;3.53;2.33;;;;;;;;;;5117436;27;20657;-78
2022/09/26 13:58:03;;;;;;;4.20;2.07;;;;;;;;;;5121958;27;20228;-78
2022/09/26 14:00:47;;;;;;;3.30;2.10;;;;;;;;;;5136118;27;20200;-79
2022/09/26 14:03:46;;;;;;;2.33;2.00;;;;;;;;;;5133661;27;20299;-78
2022/09/26 14:06:30;;;;;;;2.40;2.20;;;;;;;;;;5038612;28;20303;-78
2022/09/26 14:09:22;;;;;;;1.97;1.70;;;;;;;;;;5107854;28;20237;-79
2022/09/26 14:11:54;;;;;;;1.90;1.80;;;;;;;;;;5116440;27;20617;-78
2022/09/26 14:14:25;;;;;;;3.73;2.07;;;;;;;;;;5127062;27;20642;-78
2022/09/26 14:16:54;;;;;;;1.80;1.70;;;;;;;;;;5121958;27;20253;-78
2022/09/26 14:19:29;;;;;;;2.30;1.70;;;;;;;;;;5117079;27;20201;-78
2022/09/26 14:21:59;;;;;;;2.30;1.80;;;;;;;;;;5117010;27;20247;-80
2022/09/26 14:24:32;;;;;;;3.03;1.70;;;;;;;;;;5124224;27;20201;-78
2022/09/26 14:27:13;;;;;;;2.00;1.77;;;;;;;;;;5118293;27;20190;-77
2022/09/26 14:29:44;;;;;;;3.17;1.87;;;;;;;;;;5123620;27;20634;-78
2022/09/26 14:32:16;;;;;;;1.67;1.57;;;;;;;;;;5131342;27;20630;-78
2022/09/26 14:34:45;;;;;;;1.70;1.57;;;;;;;;;;5122456;27;20240;-78
2022/09/26 14:37:25;;;;;;;2.00;1.80;;;;;;;;;;5121248;27;20253;-78
2022/09/26 14:40:01;;;;;;;2.20;1.67;;;;;;;;;;5136484;27;20238;-78
2022/09/26 14:42:32;;;;;;;1.73;1.37;;;;;;;;;;5125189;27;20277;-78
2022/09/26 14:45:02;;;;;;;2.30;1.60;;;;;;;;;;5114856;28;20286;-78
2022/09/26 14:47:39;;;;;;;1.60;1.50;;;;;;;;;;5125193;27;20247;-80
2022/09/26 14:50:14;;;;;;;2.00;1.80;;;;;;;;;;5130868;27;20207;-81
2022/09/26 14:52:50;;;;;;;2.60;1.57;;;;;;;;;;5120864;27;20661;-81
2022/09/26 14:55:19;;;;;;;1.60;1.50;;;;;;;;;;5134874;27;20822;-80
2022/09/26 14:57:49;;;;;;;1.80;1.50;;;;;;;;;;5125536;27;20280;-79
2022/09/26 15:00:36;;;;;;;1.50;1.40;;;;;;;;;;5114699;28;20259;-80
2022/09/26 15:03:06;;;;;;;4.10;1.60;;;;;;;;;;5120242;27;20319;-80
2022/09/26 15:05:35;;;;;;;2.07;1.80;;;;;;;;;;5129066;27;20258;-79
2022/09/26 15:08:03;;;;;;;1.90;1.73;;;;;;;;;;5115354;27;20209;-78
2022/09/26 15:10:38;;;;;;;2.03;1.70;;;;;;;;;;5135212;27;20257;-78
2022/09/26 15:13:23;;;;;;;1.80;1.70;;;;;;;;;;5120180;27;20217;-79
2022/09/26 15:15:57;;;;;;;2.40;1.70;;;;;;;;;;5122835;27;20275;-77
2022/09/26 15:18:33;;;;;;;2.17;1.70;;;;;;;;;;5136669;27;20199;-78
2022/09/26 15:21:06;;;;;;;3.17;2.10;;;;;;;;;;5116839;27;20204;-79
2022/09/26 15:23:44;;;;;;;2.53;2.07;;;;;;;;;;5116867;27;20224;-79